Comanche, TX

7:22 AM CST on February 11, 2016 (GMT -0600)
Comanche

Weather History for KMKN - March, 2013

Change the Weather History Date:

Wednesday, March 27, 2013

  Actual Average (KSEP) Record (KSEP)
Temperature  
Mean Temperature 53 °F -  
Max Temperature 69 °F 70 °F 93 °F (1956)
Min Temperature 37 °F 48 °F 20 °F (1955)
Degree Days  
Heating Degree Days 12    
Growing Degree Days 3 (Base 50)    
Moisture  
Dew Point 33 °F    
Average Humidity 44    
Maximum Humidity 63    
Minimum Humidity 27    
Precipitation  
Precipitation 0.00 in - - ()
Sea Level Pressure  
Sea Level Pressure 30.18 in    
Wind  
Wind Speed 13 mph (South)    
Max Wind Speed 26 mph    
Max Gust Speed 33 mph    
Visibility 10 miles    
Events      
Averages and records for this station are not official NWS values.
T = Trace of Precipitation, MM = Missing Value Source: NWS Daily Summary

Daily Weather History Graph

Daily Weather History Graph

Search for Another Location

Airport or City:

Trip Planner

Search our weather history database for the weather conditions in past years. The results will help you decide how hot, cold, wet, or windy it might be!

Date:

Astronomy

Mar. 27, 2013 Rise Set
Actual Time 7:28 AM CDT 7:50 PM CDT
Civil Twilight 7:04 AM CDT 8:15 PM CDT
Nautical Twilight 6:35 AM CDT 8:44 PM CDT
Astronomical Twilight 6:06 AM CDT 9:13 PM CDT
Moon 8:31 PM CDT (3/27) 7:23 AM CDT (3/27)
Length of Visible Light 13h 11m
Length of Day
12h 22m
Full, 100% of the Moon is Illuminated
Mar 27
Full
Apr 2
Last Quarter
Apr 10
New
Apr 18
First Quarter
Apr 25
Full

Hourly Weather History & Observations

Time (CDT) Temp. Windchill Dew Point Humidity Pressure Visibility Wind Dir Wind Speed Gust Speed Precip Events Conditions
12:15 AM 42.8 °F 38.0 °F 24.8 °F 49% 30.27 in 10.0 mi SE 8.1 mph - N/A   Clear
12:35 AM 42.8 °F 37.5 °F 24.8 °F 49% 30.26 in 10.0 mi SSE 9.2 mph - N/A   Clear
12:55 AM 42.8 °F 38.6 °F 24.8 °F 49% 30.26 in 10.0 mi SSE 6.9 mph - N/A   Clear
1:15 AM 42.8 °F 38.0 °F 24.8 °F 49% 30.26 in 10.0 mi SSE 8.1 mph - N/A   Clear
1:35 AM 42.8 °F 37.0 °F 26.6 °F 53% 30.25 in 10.0 mi SSE 10.4 mph - N/A   Clear
1:55 AM 42.8 °F 37.0 °F 24.8 °F 49% 30.25 in 10.0 mi South 10.4 mph - N/A   Clear
2:15 AM 42.8 °F 37.0 °F 24.8 °F 49% 30.25 in 10.0 mi SSE 10.4 mph - N/A   Clear
2:35 AM 42.8 °F 37.0 °F 24.8 °F 49% 30.24 in 10.0 mi SSE 10.4 mph - N/A   Clear
2:55 AM 42.8 °F 36.6 °F 23.0 °F 46% 30.24 in 10.0 mi SSE 11.5 mph - N/A   Clear
3:15 AM 42.8 °F 36.6 °F 23.0 °F 46% 30.24 in 10.0 mi SSE 11.5 mph 17.3 mph N/A   Clear
3:35 AM 44.6 °F 38.1 °F 23.0 °F 43% 30.22 in 10.0 mi SSE 13.8 mph 19.6 mph N/A   Clear
3:55 AM 42.8 °F 37.0 °F 23.0 °F 46% 30.22 in 10.0 mi SSE 10.4 mph - N/A   Clear
4:15 AM 41.0 °F 35.8 °F 23.0 °F 49% 30.21 in 10.0 mi SSE 8.1 mph - N/A   Clear
4:35 AM 39.2 °F 33.6 °F 23.0 °F 52% 30.20 in 10.0 mi SSE 8.1 mph - N/A   Clear
4:55 AM 39.2 °F 33.6 °F 23.0 °F 52% 30.21 in 10.0 mi SSE 8.1 mph - N/A   Clear
5:15 AM 39.2 °F 34.2 °F 23.0 °F 52% 30.21 in 10.0 mi SSE 6.9 mph - N/A   Clear
5:35 AM 37.4 °F 30.8 °F 24.8 °F 60% 30.21 in 10.0 mi SSE 9.2 mph - N/A   Clear
5:55 AM 39.2 °F 33.0 °F 26.6 °F 61% 30.21 in 10.0 mi SSE 9.2 mph - N/A   Clear
6:15 AM 41.0 °F 35.2 °F 26.6 °F 57% 30.21 in 10.0 mi South 9.2 mph - N/A   Clear
6:35 AM 44.6 °F 38.4 °F 26.6 °F 49% 30.21 in 10.0 mi South 12.7 mph - N/A   Clear
6:55 AM 42.8 °F 37.0 °F 26.6 °F 53% 30.22 in 10.0 mi South 10.4 mph - N/A   Clear
7:15 AM 42.8 °F 37.0 °F 26.6 °F 53% 30.22 in 10.0 mi South 10.4 mph - N/A   Clear
7:35 AM 42.8 °F 37.5 °F 26.6 °F 53% 30.23 in 10.0 mi South 9.2 mph - N/A   Clear
7:55 AM 42.8 °F 37.0 °F 26.6 °F 53% 30.23 in 10.0 mi South 10.4 mph - N/A   Clear
8:15 AM 44.6 °F 39.7 °F 28.4 °F 53% 30.24 in 10.0 mi South 9.2 mph 16.1 mph N/A   Clear
8:35 AM 46.4 °F 41.1 °F 28.4 °F 50% 30.25 in 10.0 mi South 11.5 mph 18.4 mph N/A   Clear
8:55 AM 48.2 °F - 28.4 °F 46% 30.25 in 10.0 mi South 13.8 mph 19.6 mph N/A   Clear
9:15 AM 50.0 °F - 28.4 °F 43% 30.25 in 10.0 mi South 16.1 mph 24.2 mph N/A   Clear
9:35 AM 51.8 °F - 28.4 °F 41% 30.24 in 10.0 mi South 23.0 mph 28.8 mph N/A   Clear
9:55 AM 53.6 °F - 28.4 °F 38% 30.24 in 10.0 mi South 21.9 mph 31.1 mph N/A   Clear
10:15 AM 55.4 °F - 28.4 °F 36% 30.23 in 10.0 mi South 24.2 mph 33.4 mph N/A   Clear
10:35 AM 57.2 °F - 30.2 °F 36% 30.23 in 10.0 mi South 25.3 mph 32.2 mph N/A   Clear
10:55 AM 59.0 °F - 30.2 °F 34% 30.23 in 10.0 mi South 18.4 mph 32.2 mph N/A   Clear
11:15 AM 59.0 °F - 32.0 °F 36% 30.23 in 10.0 mi South 25.3 mph 29.9 mph N/A   Clear
11:35 AM 60.8 °F - 32.0 °F 34% 30.22 in 10.0 mi South 23.0 mph 29.9 mph N/A   Clear
11:55 AM 62.6 °F - 33.8 °F 34% 30.22 in 10.0 mi South 19.6 mph 29.9 mph N/A   Clear
12:15 PM 64.4 °F - 35.6 °F 34% 30.21 in 10.0 mi South 26.5 mph 33.4 mph N/A   Clear
12:35 PM 62.6 °F - 35.6 °F 37% 30.21 in 10.0 mi South 24.2 mph 32.2 mph N/A   Clear
12:55 PM 64.4 °F - 35.6 °F 34% 30.20 in 10.0 mi South 25.3 mph 31.1 mph N/A   Clear
1:15 PM 64.4 °F - 35.6 °F 34% 30.20 in 10.0 mi South 21.9 mph 33.4 mph N/A   Clear
1:35 PM 64.4 °F - 35.6 °F 34% 30.19 in 10.0 mi South 26.5 mph 33.4 mph N/A   Clear
1:55 PM 66.2 °F - 35.6 °F 32% 30.18 in 10.0 mi SSW 20.7 mph 27.6 mph N/A   Clear
2:15 PM 68.0 °F - 35.6 °F 30% 30.16 in 10.0 mi South 20.7 mph 26.5 mph N/A   Clear
2:35 PM 68.0 °F - 35.6 °F 30% 30.16 in 10.0 mi SSW 17.3 mph 25.3 mph N/A   Clear
2:55 PM 69.8 °F - 33.8 °F 27% 30.15 in 10.0 mi SSW 13.8 mph 28.8 mph N/A   Clear
3:15 PM 69.8 °F - 35.6 °F 28% 30.14 in 10.0 mi South 16.1 mph 31.1 mph N/A   Clear
3:35 PM 69.8 °F - 35.6 °F 28% 30.12 in 10.0 mi South 18.4 mph 28.8 mph N/A   Clear
3:55 PM 69.8 °F - 37.4 °F 31% 30.11 in 10.0 mi South 19.6 mph 28.8 mph N/A   Clear
4:15 PM 69.8 °F - 37.4 °F 31% 30.10 in 10.0 mi South 21.9 mph 27.6 mph N/A   Clear
4:35 PM 69.8 °F - 37.4 °F 31% 30.09 in 10.0 mi South 16.1 mph 29.9 mph N/A   Clear
4:55 PM 69.8 °F - 37.4 °F 31% 30.09 in 10.0 mi South 17.3 mph 29.9 mph N/A   Clear
5:15 PM 69.8 °F - 37.4 °F 31% 30.08 in 10.0 mi South 15.0 mph 26.5 mph N/A   Clear
5:35 PM 69.8 °F - 37.4 °F 31% 30.08 in 10.0 mi South 18.4 mph 25.3 mph N/A   Clear
5:55 PM 68.0 °F - 37.4 °F 33% 30.08 in 10.0 mi South 16.1 mph 23.0 mph N/A   Clear
6:15 PM 69.8 °F - 39.2 °F 33% 30.08 in 10.0 mi South 17.3 mph 21.9 mph N/A   Clear
6:35 PM 68.0 °F - 39.2 °F 35% 30.08 in 10.0 mi South 17.3 mph 25.3 mph N/A   Clear
6:55 PM 66.2 °F - 41.0 °F 40% 30.08 in 10.0 mi South 20.7 mph 24.2 mph N/A   Clear
7:15 PM 64.4 °F - 41.0 °F 42% 30.08 in 10.0 mi South 15.0 mph 23.0 mph N/A   Clear
7:35 PM 64.4 °F - 41.0 °F 42% 30.08 in 10.0 mi South 15.0 mph 21.9 mph N/A   Clear
7:55 PM 62.6 °F - 41.0 °F 45% 30.09 in 10.0 mi South 12.7 mph - N/A   Clear
8:15 PM 62.6 °F - 41.0 °F 45% 30.09 in 10.0 mi South 11.5 mph 18.4 mph N/A   Clear
8:35 PM 60.8 °F - 41.0 °F 48% 30.09 in 10.0 mi SSE 8.1 mph - N/A   Clear
8:55 PM 60.8 °F - 41.0 °F 48% 30.09 in 10.0 mi South 12.7 mph 16.1 mph N/A   Clear
9:15 PM 59.0 °F - 42.8 °F 55% 30.10 in 10.0 mi South 11.5 mph 17.3 mph N/A   Clear
9:35 PM 59.0 °F - 42.8 °F 55% 30.11 in 10.0 mi South 10.4 mph - N/A   Clear
9:55 PM 59.0 °F - 42.8 °F 55% 30.11 in 10.0 mi South 10.4 mph - N/A   Clear
10:15 PM 57.2 °F - 42.8 °F 59% 30.11 in 10.0 mi South 13.8 mph - N/A   Clear
10:35 PM 57.2 °F - 42.8 °F 59% 30.12 in 10.0 mi South 10.4 mph - N/A   Clear
10:55 PM 57.2 °F - 42.8 °F 59% 30.12 in 10.0 mi South 11.5 mph 17.3 mph N/A   Clear
11:15 PM 59.0 °F - 42.8 °F 55% 30.13 in 10.0 mi South 13.8 mph - N/A   Clear
11:35 PM 59.0 °F - 42.8 °F 55% 30.12 in 10.0 mi South 16.1 mph 23.0 mph N/A   Clear
11:55 PM 57.2 °F - 44.6 °F 63% 30.13 in 10.0 mi South 16.1 mph 19.6 mph N/A   Clear